Time;durP1;ratioP1;P1;durP2;ratioP2;P2;SDS_P1;SDS_P2;PMS_P1;PMS_P2;Temp;Humidity;BMP_temperature;BMP_pressure;BME280_temperature;BME280_humidity;BME280_pressure;Samples;Min_cycle;Max_cycle;Signal;HPM_P1;HPM_P2
2023/12/14 17:53:38;;;;;;;8.40;5.20;;;;;;;1.87;100.00;99562.60;106077;1282;616256;-66
2023/12/14 17:56:07;;;;;;;8.40;5.70;;;;;;;1.85;100.00;99566.02;107564;1266;161841;-67
2023/12/14 17:58:33;;;;;;;9.20;6.40;;;;;;;1.64;100.00;99573.01;107411;1266;60417;-69
2023/12/14 18:01:02;;;;;;;9.20;6.60;;;;;;;1.49;100.00;99573.54;107340;1265;72013;-67
2023/12/14 18:03:32;;;;;;;9.40;6.60;;;;;;;1.37;100.00;99582.10;107289;1266;71586;-68
2023/12/14 18:06:01;;;;;;;9.60;6.70;;;;;;;1.31;100.00;99582.89;107395;1266;72413;-68
2023/12/14 18:08:28;;;;;;;10.00;6.90;;;;;;;1.26;100.00;99590.00;107375;1266;61172;-66
2023/12/14 18:10:56;;;;;;;11.80;8.00;;;;;;;1.22;100.00;99598.45;107337;1268;60183;-68
2023/12/14 18:13:23;;;;;;;11.20;7.60;;;;;;;1.21;100.00;99599.31;107405;1266;72224;-67
2023/12/14 18:15:50;;;;;;;10.90;7.20;;;;;;;1.18;100.00;99604.08;108004;1257;72969;-68
2023/12/14 18:18:18;;;;;;;10.50;7.90;;;;;;;1.13;100.00;99607.69;108002;1257;71662;-68
2023/12/14 18:20:45;;;;;;;9.90;7.50;;;;;;;1.10;100.00;99616.75;107967;1257;61107;-67
2023/12/14 18:23:11;;;;;;;10.80;7.80;;;;;;;1.06;100.00;99625.61;107969;1261;60536;-66
2023/12/14 18:25:39;;;;;;;11.50;7.40;;;;;;;1.03;100.00;99627.16;107988;1257;71837;-66
2023/12/14 18:28:06;;;;;;;13.90;7.80;;;;;;;1.02;100.00;99631.27;108108;1257;72844;-67
2023/12/14 19:34:31;;;;;;;11.20;7.50;;;;;;;-0.24;100.00;99779.16;105855;1282;614778;-76
2023/12/14 19:36:58;;;;;;;13.00;7.20;;;;;;;0.13;100.00;99788.11;107288;1266;162892;-74
2023/12/14 19:39:26;;;;;;;9.90;6.00;;;;;;;0.12;100.00;99791.40;107392;1266;61063;-75
2023/12/14 19:41:53;;;;;;;10.50;5.70;;;;;;;0.09;100.00;99797.55;107367;1265;71150;-75
2023/12/14 19:44:20;;;;;;;10.30;5.20;;;;;;;0.04;100.00;99798.45;107448;1264;71910;-75
2023/12/14 19:46:47;;;;;;;10.50;5.70;;;;;;;-0.01;100.00;99810.02;107400;1264;70921;-75
2023/12/14 19:49:14;;;;;;;10.10;5.60;;;;;;;-0.05;100.00;99816.36;107773;1256;61271;-76
2023/12/14 19:51:41;;;;;;;8.40;5.30;;;;;;;-0.10;99.96;99820.55;107934;1257;59342;-74
2023/12/14 19:54:08;;;;;;;8.60;5.40;;;;;;;-0.12;99.45;99830.52;107945;1257;71035;-75
2023/12/14 19:56:35;;;;;;;12.40;5.90;;;;;;;-0.14;98.67;99832.82;107928;1257;71701;-75
2023/12/14 19:59:02;;;;;;;13.50;6.00;;;;;;;-0.16;97.31;99835.54;107979;1261;73198;-76
2023/12/14 20:01:31;;;;;;;12.50;6.20;;;;;;;-0.18;96.47;99839.65;108072;1257;60058;-75
2023/12/14 20:04:00;;;;;;;11.30;6.10;;;;;;;-0.24;95.99;99842.16;108028;1255;60102;-76
2023/12/14 20:06:27;;;;;;;10.30;6.40;;;;;;;-0.27;95.67;99848.66;108091;1255;73045;-76
2023/12/14 20:08:54;;;;;;;14.30;6.40;;;;;;;-0.28;95.42;99843.42;108056;1257;72791;-75
2023/12/14 20:11:21;;;;;;;13.60;6.40;;;;;;;-0.30;95.28;99845.06;108033;1257;72027;-74
2023/12/14 20:13:49;;;;;;;10.40;6.40;;;;;;;-0.30;95.18;99846.80;108045;1257;60137;-75
2023/12/14 20:16:16;;;;;;;10.70;5.80;;;;;;;-0.33;94.20;99855.86;108055;1258;60511;-77
2023/12/14 20:18:43;;;;;;;11.30;5.90;;;;;;;-0.38;93.26;99847.41;108100;1257;72153;-75
2023/12/14 20:21:10;;;;;;;12.30;6.10;;;;;;;-0.42;93.06;99855.98;108022;1256;72849;-74
2023/12/14 20:23:38;;;;;;;12.60;6.40;;;;;;;-0.46;92.37;99857.88;107973;1258;72278;-74
2023/12/14 20:26:06;;;;;;;11.60;6.10;;;;;;;-0.49;91.94;99861.91;108016;1257;61139;-72
2023/12/14 20:28:34;;;;;;;13.50;6.20;;;;;;;-0.51;91.74;99863.04;107979;1258;60846;-79
2023/12/14 20:31:01;;;;;;;9.80;6.10;;;;;;;-0.50;91.91;99871.02;108017;1257;73070;-77
2023/12/14 20:33:29;;;;;;;10.40;6.50;;;;;;;-0.49;91.77;99878.58;107973;1257;73737;-76
2023/12/14 20:35:56;;;;;;;11.90;6.50;;;;;;;-0.47;91.96;99893.88;107981;1257;72780;-77
2023/12/14 20:38:23;;;;;;;10.40;5.60;;;;;;;-0.49;91.61;99907.33;107824;1257;60124;-75
2023/12/14 20:40:50;;;;;;;11.90;5.80;;;;;;;-0.52;90.82;99917.20;107988;1257;61145;-75
2023/12/14 20:43:17;;;;;;;14.50;6.50;;;;;;;-0.56;90.31;99918.13;107978;1257;73574;-77
2023/12/14 20:45:46;;;;;;;12.30;6.80;;;;;;;-0.59;90.56;99919.01;107858;1257;73860;-75
2023/12/14 20:48:14;;;;;;;10.50;6.20;;;;;;;-0.61;90.44;99918.40;107755;1263;72967;-74
2023/12/14 20:50:41;;;;;;;9.70;5.80;;;;;;;-0.62;90.30;99930.50;107827;1258;60925;-75
2023/12/14 20:53:08;;;;;;;13.50;6.10;;;;;;;-0.64;90.20;99936.35;107816;1257;60212;-76
2023/12/14 20:55:34;;;;;;;11.90;5.60;;;;;;;-0.65;90.56;99945.55;107947;1257;72823;-74
2023/12/14 20:58:01;;;;;;;11.90;6.60;;;;;;;-0.65;90.79;99954.78;107989;1257;71708;-75
2023/12/14 21:00:30;;;;;;;12.20;6.10;;;;;;;-0.64;91.55;99962.70;108021;1257;72611;-75
2023/12/14 21:02:58;;;;;;;12.70;6.40;;;;;;;-0.63;92.21;99964.43;107928;1260;59960;-76
2023/12/14 21:05:24;;;;;;;11.60;6.40;;;;;;;-0.63;92.41;99972.54;107880;1257;60081;-74
2023/12/14 21:08:09;;;;;;;10.40;5.80;;;;;;;-0.64;92.25;99979.27;107707;1262;73155;-76
2023/12/14 21:10:36;;;;;;;11.00;5.90;;;;;;;-0.66;92.13;99971.37;107871;1257;72823;-76
2023/12/14 21:13:03;;;;;;;8.70;5.70;;;;;;;-0.69;91.41;99971.89;107876;1258;72671;-75
2023/12/14 21:15:30;;;;;;;12.50;6.00;;;;;;;-0.69;90.99;99976.44;107881;1257;61225;-75
2023/12/14 21:17:56;;;;;;;13.50;6.30;;;;;;;-0.67;90.81;99968.53;108028;1257;60314;-74
2023/12/14 21:20:27;;;;;;;10.50;6.20;;;;;;;-0.67;90.85;99950.30;107970;1260;72880;-75
2023/12/14 21:22:54;;;;;;;9.00;5.70;;;;;;;-0.67;90.86;99958.33;107859;1257;72574;-75
2023/12/14 21:25:26;;;;;;;10.20;6.30;;;;;;;-0.67;90.39;99956.31;107939;1260;71507;-74
2023/12/14 21:27:56;;;;;;;11.20;5.80;;;;;;;-0.70;90.07;99947.95;107978;1260;61231;-75
2023/12/14 21:30:23;;;;;;;11.80;6.00;;;;;;;-0.72;89.59;99950.17;107806;1257;59602;-75
2023/12/14 21:32:51;;;;;;;11.20;5.60;;;;;;;-0.74;88.89;99966.70;107714;1257;73091;-74
2023/12/14 21:35:18;;;;;;;11.70;7.00;;;;;;;-0.79;88.31;99967.81;107949;1258;72892;-74
2023/12/14 21:37:45;;;;;;;11.20;6.10;;;;;;;-0.81;87.83;99977.70;107813;1257;72552;-75
2023/12/14 21:40:14;;;;;;;12.30;6.00;;;;;;;-0.82;88.13;99984.31;107930;1257;61246;-73
2023/12/14 21:42:41;;;;;;;12.70;6.00;;;;;;;-0.84;87.80;99989.75;107921;1257;59980;-74
2023/12/14 21:45:10;;;;;;;9.50;5.90;;;;;;;-0.85;87.85;99997.00;107729;1259;72057;-74
2023/12/14 21:47:37;;;;;;;12.90;6.10;;;;;;;-0.85;87.57;100000.95;107823;1257;72508;-73
2023/12/14 21:50:05;;;;;;;11.10;5.90;;;;;;;-0.86;87.42;100004.54;107843;1257;72697;-73
2023/12/14 21:52:32;;;;;;;9.30;5.90;;;;;;;-0.87;87.26;100015.79;107801;1258;60069;-74
2023/12/14 21:54:59;;;;;;;9.30;5.80;;;;;;;-0.88;87.01;100022.77;107820;1256;60268;-75
2023/12/14 21:57:26;;;;;;;11.50;6.00;;;;;;;-0.91;86.86;100031.14;107988;1257;73020;-74
2023/12/14 21:59:54;;;;;;;9.70;6.60;;;;;;;-0.91;86.82;100035.82;108114;1257;72430;-74
2023/12/14 22:02:21;;;;;;;11.20;5.50;;;;;;;-0.93;86.76;100045.13;107898;1257;72882;-74
2023/12/14 22:04:48;;;;;;;10.00;5.20;;;;;;;-0.94;86.65;100053.63;107887;1257;61158;-73
2023/12/14 22:07:15;;;;;;;12.80;5.50;;;;;;;-0.94;86.50;100057.46;107898;1257;60299;-75
2023/12/14 22:09:42;;;;;;;11.00;5.80;;;;;;;-0.96;86.34;100058.38;107911;1258;71935;-73
2023/12/14 22:12:09;;;;;;;10.00;6.40;;;;;;;-0.97;86.79;100065.80;107967;1257;72795;-72
2023/12/14 22:14:36;;;;;;;9.40;5.70;;;;;;;-0.97;86.55;100074.38;107948;1257;72474;-73
2023/12/14 22:17:05;;;;;;;9.00;5.60;;;;;;;-0.97;86.82;100081.08;107970;1257;60968;-74
2023/12/14 22:19:36;;;;;;;11.50;6.30;;;;;;;-0.97;87.09;100099.27;107960;1257;60346;-73
2023/12/14 22:22:03;;;;;;;10.40;6.10;;;;;;;-0.95;87.35;100116.14;108003;1257;72994;-73
2023/12/14 22:24:30;;;;;;;11.10;6.20;;;;;;;-0.92;87.88;100127.33;107979;1257;72777;-73
2023/12/14 22:26:57;;;;;;;11.00;6.00;;;;;;;-0.92;87.14;100124.34;107834;1257;72496;-73
2023/12/14 22:29:24;;;;;;;13.30;6.20;;;;;;;-0.94;86.71;100115.34;107812;1258;59642;-74
2023/12/14 22:31:52;;;;;;;12.80;6.10;;;;;;;-0.99;85.89;100104.91;108010;1257;60426;-73
2023/12/14 22:34:18;;;;;;;13.10;6.20;;;;;;;-1.03;85.38;100101.97;108239;1259;72828;-73
2023/12/14 22:36:45;;;;;;;12.00;6.00;;;;;;;-1.04;85.12;100108.22;108190;1256;72762;-76
2023/12/14 22:39:12;;;;;;;10.70;6.90;;;;;;;-1.06;84.92;100117.08;108140;1255;71113;-73
2023/12/14 22:41:39;;;;;;;13.20;6.60;;;;;;;-1.05;84.85;100117.90;108105;1254;61109;-73
2023/12/14 22:44:06;;;;;;;11.20;6.60;;;;;;;-1.05;84.61;100115.92;108132;1254;60133;-75
2023/12/14 22:46:33;;;;;;;11.40;6.20;;;;;;;-1.05;84.22;100100.96;108141;1254;72866;-73
2023/12/14 22:49:00;;;;;;;16.90;8.00;;;;;;;-1.06;84.12;100096.38;108131;1254;72747;-74
2023/12/14 22:51:27;;;;;;;11.50;6.00;;;;;;;-1.07;84.15;100095.42;108108;1254;72381;-74
2023/12/14 22:53:54;;;;;;;11.20;6.20;;;;;;;-1.06;84.38;100103.55;108123;1254;61505;-75
2023/12/14 22:56:22;;;;;;;13.40;6.50;;;;;;;-1.07;84.28;100119.21;108413;1254;60377;-74
2023/12/14 22:58:50;;;;;;;11.40;6.70;;;;;;;-1.07;84.49;100125.58;108124;1258;72841;-74
2023/12/14 23:01:32;;;;;;;13.20;6.70;;;;;;;-1.05;84.83;100127.65;108204;1256;73026;-72
2023/12/14 23:04:01;;;;;;;13.10;7.30;;;;;;;-1.02;85.26;100126.28;108132;1254;72524;-73
2023/12/14 23:06:28;;;;;;;13.20;6.60;;;;;;;-1.02;85.31;100120.84;108100;1257;59685;-75
2023/12/14 23:08:55;;;;;;;15.10;7.40;;;;;;;-1.03;85.37;100128.67;108136;1255;59496;-75
2023/12/14 23:11:22;;;;;;;11.10;6.50;;;;;;;-1.04;85.45;100136.48;108121;1255;72799;-74
2023/12/14 23:13:49;;;;;;;12.30;6.80;;;;;;;-1.05;85.48;100145.35;108045;1254;72729;-74
2023/12/14 23:16:15;;;;;;;13.70;7.60;;;;;;;-1.12;86.14;100152.31;108150;1254;72637;-73
2023/12/14 23:18:42;;;;;;;11.30;6.60;;;;;;;-1.16;86.52;100157.36;108094;1254;61178;-73
2023/12/14 23:21:09;;;;;;;11.10;6.10;;;;;;;-1.17;86.55;100160.59;108165;1256;60375;-73
2023/12/14 23:23:36;;;;;;;12.90;6.80;;;;;;;-1.19;87.05;100168.84;108113;1258;72998;-73
2023/12/14 23:26:04;;;;;;;11.80;6.80;;;;;;;-1.23;86.61;100161.63;108188;1254;71629;-73
2023/12/14 23:28:31;;;;;;;11.60;5.70;;;;;;;-1.25;86.70;100165.77;108050;1254;72379;-74
2023/12/14 23:30:58;;;;;;;15.40;6.60;;;;;;;-1.27;86.83;100171.75;108134;1253;61130;-74
2023/12/14 23:33:24;;;;;;;15.20;6.40;;;;;;;-1.29;86.99;100173.02;108062;1254;59513;-74
2023/12/14 23:35:51;;;;;;;11.70;6.00;;;;;;;-1.31;87.05;100169.83;108235;1253;72957;-72
2023/12/14 23:38:18;;;;;;;11.00;5.80;;;;;;;-1.31;87.10;100169.05;108275;1254;72891;-73
2023/12/14 23:40:45;;;;;;;10.30;5.80;;;;;;;-1.32;87.51;100168.06;108147;1254;71424;-72
2023/12/14 23:43:12;;;;;;;12.50;6.90;;;;;;;-1.31;87.55;100165.59;108144;1253;60350;-73
2023/12/14 23:45:39;;;;;;;11.50;6.40;;;;;;;-1.31;87.55;100167.12;108232;1253;60318;-73
2023/12/14 23:48:06;;;;;;;9.50;5.80;;;;;;;-1.37;87.62;100173.80;108167;1254;73666;-73
2023/12/14 23:50:33;;;;;;;10.90;6.10;;;;;;;-1.40;87.72;100182.31;108209;1254;72697;-73
2023/12/14 23:53:00;;;;;;;11.40;6.40;;;;;;;-1.41;88.24;100188.35;108266;1254;72533;-74
2023/12/14 23:55:28;;;;;;;12.40;6.10;;;;;;;-1.39;88.86;100200.30;108292;1253;61052;-73
2023/12/14 23:57:54;;;;;;;12.30;6.10;;;;;;;-1.36;88.92;100200.73;108244;1253;60325;-73
